createdAt,value
2023-01-02T00:02:01.005Z,99.90
2023-01-02T00:04:28.420Z,99.90
2023-01-02T00:06:55.718Z,99.90
2023-01-02T00:09:23.065Z,99.90
2023-01-02T00:11:50.329Z,99.90
2023-01-02T00:14:17.645Z,99.90
2023-01-02T00:16:44.951Z,99.90
2023-01-02T00:19:12.300Z,99.90
2023-01-02T00:21:39.576Z,99.90
2023-01-02T00:24:07.162Z,99.90
2023-01-02T00:26:34.451Z,99.90
2023-01-02T00:29:01.954Z,99.90
2023-01-02T00:31:29.340Z,99.90
2023-01-02T00:33:56.753Z,99.90
2023-01-02T00:36:24.061Z,99.90
2023-01-02T00:38:55.350Z,99.90
2023-01-02T00:41:22.788Z,99.90
2023-01-02T00:43:50.072Z,99.90
2023-01-02T00:46:18.811Z,99.90
2023-01-02T00:48:46.189Z,99.90
2023-01-02T00:51:13.547Z,99.90
2023-01-02T00:53:40.831Z,99.90
2023-01-02T00:56:08.287Z,99.90
2023-01-02T00:58:35.692Z,99.90
2023-01-02T01:01:03.213Z,99.90
2023-01-02T01:03:30.754Z,99.90
2023-01-02T01:05:58.129Z,99.90
2023-01-02T01:08:25.467Z,99.90
2023-01-02T01:10:52.757Z,99.90
2023-01-02T01:13:20.057Z,99.90
2023-01-02T01:15:47.412Z,99.90
2023-01-02T01:18:14.713Z,99.90
2023-01-02T01:20:42.023Z,99.90
2023-01-02T01:23:09.343Z,99.90
2023-01-02T01:25:37.481Z,99.90
2023-01-02T01:28:04.822Z,99.90
2023-01-02T01:30:32.190Z,99.90
2023-01-02T01:32:59.553Z,99.90
2023-01-02T01:35:26.857Z,99.90
2023-01-02T01:37:54.181Z,99.90
2023-01-02T01:40:21.571Z,99.90
2023-01-02T01:42:50.351Z,99.90
2023-01-02T01:45:18.798Z,99.90
2023-01-02T01:47:53.673Z,99.90
2023-01-02T01:50:33.693Z,99.90
2023-01-02T01:53:03.799Z,99.90
2023-01-02T01:55:36.812Z,99.90
2023-01-02T01:58:19.019Z,99.90
2023-01-02T02:00:47.083Z,99.90
2023-01-02T02:03:18.875Z,99.90
2023-01-02T02:05:46.269Z,99.90
2023-01-02T02:08:55.148Z,99.90
2023-01-02T02:11:22.470Z,99.90
2023-01-02T02:13:49.820Z,99.90
2023-01-02T02:16:17.239Z,99.90
2023-01-02T02:19:06.329Z,99.90
2023-01-02T02:21:55.208Z,99.90
2023-01-02T02:24:37.560Z,99.90
2023-01-02T02:27:30.824Z,99.90
2023-01-02T02:30:04.364Z,99.90
2023-01-02T02:33:05.597Z,99.90
2023-01-02T02:35:51.595Z,99.90
2023-01-02T02:38:32.512Z,99.90
2023-01-02T02:41:30.293Z,99.90
2023-01-02T02:44:38.813Z,99.90
2023-01-02T02:47:37.897Z,99.90
2023-01-02T02:50:12.281Z,99.90
2023-01-02T02:52:46.722Z,99.90
2023-01-02T02:55:30.845Z,99.90
2023-01-02T02:57:58.461Z,99.90
2023-01-02T03:00:25.746Z,99.90
2023-01-02T03:02:53.134Z,99.90
2023-01-02T03:05:31.024Z,99.90
2023-01-02T03:08:16.901Z,99.90
2023-01-02T03:10:55.685Z,99.90
2023-01-02T03:13:25.849Z,99.90
2023-01-02T03:16:17.385Z,99.90
2023-01-02T03:18:54.456Z,99.90
2023-01-02T03:21:33.838Z,99.90
2023-01-02T03:24:06.139Z,99.90
2023-01-02T03:26:34.086Z,99.90
2023-01-02T03:29:04.314Z,99.90
2023-01-02T03:31:32.903Z,99.90
2023-01-02T03:34:04.170Z,99.90
2023-01-02T03:36:32.992Z,99.90
2023-01-02T03:39:07.373Z,99.90
2023-01-02T03:41:37.965Z,99.90
2023-01-02T03:44:06.071Z,99.90
2023-01-02T03:46:51.813Z,99.90
2023-01-02T03:49:24.526Z,99.90
2023-01-02T03:51:51.791Z,99.90
2023-01-02T03:54:19.189Z,99.90
2023-01-02T03:57:04.872Z,99.90
2023-01-02T04:00:06.427Z,99.90
2023-01-02T04:02:43.205Z,99.90
2023-01-02T04:05:25.482Z,99.90
2023-01-02T04:08:11.486Z,99.90
2023-01-02T04:10:38.830Z,99.90
2023-01-02T04:13:10.963Z,99.90
2023-01-02T04:15:38.347Z,99.90
2023-01-02T04:18:08.506Z,99.90
2023-01-02T04:20:38.612Z,99.90
2023-01-02T04:23:09.916Z,99.90
2023-01-02T04:25:43.016Z,99.90
2023-01-02T04:28:15.534Z,99.90
2023-01-02T04:30:43.288Z,99.90
2023-01-02T04:33:10.628Z,99.90
2023-01-02T04:35:37.968Z,99.90
2023-01-02T04:38:09.429Z,99.90
2023-01-02T04:40:38.102Z,99.90
2023-01-02T04:43:17.187Z,99.90
2023-01-02T04:45:44.547Z,99.90
2023-01-02T04:48:11.821Z,99.90
2023-01-02T04:50:39.112Z,99.90
2023-01-02T04:53:06.446Z,99.90
2023-01-02T04:55:34.137Z,99.90
2023-01-02T04:58:01.557Z,99.90
2023-01-02T05:00:28.874Z,99.90
2023-01-02T05:02:56.140Z,99.90
2023-01-02T05:05:23.433Z,99.90
2023-01-02T05:07:50.719Z,99.90
2023-01-02T05:10:18.092Z,99.90
2023-01-02T05:12:45.490Z,99.90
2023-01-02T05:15:12.762Z,99.90
2023-01-02T05:17:40.955Z,99.90
2023-01-02T05:20:12.456Z,99.90
2023-01-02T05:22:59.129Z,99.90
2023-01-02T05:25:26.653Z,99.90
2023-01-02T05:27:54.680Z,99.90
2023-01-02T05:30:22.115Z,99.90
2023-01-02T05:32:49.634Z,99.90
2023-01-02T05:35:17.084Z,99.90
2023-01-02T05:37:45.819Z,99.90
2023-01-02T05:40:13.099Z,99.90
2023-01-02T05:42:40.388Z,99.90
2023-01-02T05:45:08.226Z,99.90
2023-01-02T05:47:35.564Z,99.90
2023-01-02T05:50:03.842Z,99.90
2023-01-02T05:52:31.132Z,99.90
2023-01-02T05:54:58.460Z,99.90
2023-01-02T05:57:26.496Z,99.90
2023-01-02T05:59:53.820Z,99.90
2023-01-02T06:02:21.218Z,99.90
2023-01-02T06:04:48.600Z,99.90
2023-01-02T06:07:15.891Z,99.90
2023-01-02T06:09:44.341Z,99.90
2023-01-02T06:12:11.640Z,99.90
2023-01-02T06:14:38.935Z,99.90
2023-01-02T06:17:06.241Z,99.90
2023-01-02T06:19:33.560Z,99.90
2023-01-02T06:22:00.929Z,99.90
2023-01-02T06:24:28.201Z,99.90
2023-01-02T06:26:56.210Z,99.90
2023-01-02T06:29:23.511Z,99.90
2023-01-02T06:31:51.729Z,99.90
2023-01-02T06:34:19.422Z,99.90
2023-01-02T06:36:46.710Z,99.90
2023-01-02T06:39:14.009Z,99.90
2023-01-02T06:41:41.294Z,99.90
2023-01-02T06:44:13.465Z,99.90
2023-01-02T06:46:40.782Z,99.90
2023-01-02T06:49:08.102Z,99.90
2023-01-02T06:51:35.492Z,99.90
2023-01-02T06:54:02.791Z,99.90
2023-01-02T06:56:30.077Z,99.90
2023-01-02T06:58:58.685Z,99.90
2023-01-02T07:01:26.052Z,99.90
2023-01-02T07:03:55.615Z,99.90
2023-01-02T07:06:22.973Z,99.90
2023-01-02T07:08:50.682Z,99.90
2023-01-02T07:11:22.688Z,99.90
2023-01-02T07:13:51.779Z,99.90
2023-01-02T07:16:20.080Z,99.90
2023-01-02T07:18:47.559Z,99.90
2023-01-02T07:21:15.320Z,99.90
2023-01-02T07:23:42.691Z,99.90
2023-01-02T07:26:10.405Z,99.90
2023-01-02T07:28:37.854Z,99.90
2023-01-02T07:31:06.993Z,99.90
2023-01-02T07:33:34.440Z,99.90
2023-01-02T07:36:04.598Z,99.90
2023-01-02T07:38:32.215Z,99.90
2023-01-02T07:40:59.511Z,99.90
2023-01-02T07:43:27.063Z,99.90
2023-01-02T07:45:54.465Z,99.90
2023-01-02T07:48:21.819Z,99.90
2023-01-02T07:50:49.126Z,99.90
2023-01-02T07:53:16.445Z,99.90
2023-01-02T07:55:43.741Z,99.90
2023-01-02T07:58:11.101Z,99.90
2023-01-02T08:00:38.684Z,99.90
2023-01-02T08:03:06.080Z,99.90
2023-01-02T08:05:34.215Z,99.90
2023-01-02T08:08:01.504Z,99.90
2023-01-02T08:10:28.860Z,99.90
2023-01-02T08:12:57.367Z,99.90
2023-01-02T08:15:25.189Z,99.90
2023-01-02T08:17:52.509Z,99.90
2023-01-02T08:20:19.797Z,99.90
2023-01-02T08:22:47.201Z,99.90
2023-01-02T08:25:14.592Z,99.90
2023-01-02T08:27:41.899Z,99.90
2023-01-02T08:30:09.655Z,99.90
2023-01-02T08:32:37.571Z,99.90
2023-01-02T08:35:05.836Z,99.90
2023-01-02T08:37:33.451Z,99.90
2023-01-02T08:40:00.779Z,99.90
2023-01-02T08:42:28.165Z,99.90
2023-01-02T08:44:55.501Z,99.90
2023-01-02T08:47:22.809Z,99.90
2023-01-02T08:49:50.487Z,99.90
2023-01-02T08:52:17.822Z,99.90
2023-01-02T08:54:45.733Z,99.90
2023-01-02T08:57:13.089Z,99.90
2023-01-02T08:59:40.456Z,99.90
2023-01-02T09:02:08.027Z,99.90
2023-01-02T09:04:35.510Z,99.90
2023-01-02T09:07:02.884Z,99.90
2023-01-02T09:09:30.236Z,99.90
2023-01-02T09:11:58.389Z,99.90
2023-01-02T09:14:25.798Z,99.90
2023-01-02T09:16:53.256Z,99.90
2023-01-02T09:19:21.004Z,99.90
2023-01-02T09:21:48.344Z,99.90
2023-01-02T09:24:15.731Z,99.90
2023-01-02T09:26:43.098Z,99.90
2023-01-02T09:29:11.232Z,99.90
2023-01-02T09:31:38.980Z,99.90
2023-01-02T09:34:06.516Z,99.90
2023-01-02T09:36:33.810Z,99.90
2023-01-02T09:39:01.403Z,99.90
2023-01-02T09:41:48.427Z,99.90
2023-01-02T09:44:18.040Z,99.90
2023-01-02T09:46:49.720Z,99.90
2023-01-02T09:49:21.759Z,99.90
2023-01-02T09:51:49.040Z,99.90
2023-01-02T09:54:27.337Z,99.90
2023-01-02T09:57:28.246Z,99.90
2023-01-02T10:00:19.000Z,99.90
2023-01-02T10:02:55.189Z,99.90
2023-01-02T10:05:43.384Z,99.90
2023-01-02T10:08:44.682Z,99.90
2023-01-02T10:11:32.332Z,99.90
2023-01-02T10:14:20.644Z,99.90
2023-01-02T10:16:53.862Z,99.90
2023-01-02T10:19:39.771Z,99.90
2023-01-02T10:22:08.301Z,99.80
2023-01-02T10:24:40.534Z,99.30
2023-01-02T10:27:13.375Z,98.90
2023-01-02T10:29:48.311Z,98.50
2023-01-02T10:32:19.682Z,97.90
2023-01-02T10:35:05.567Z,97.30
2023-01-02T10:37:33.378Z,96.50
2023-01-02T10:40:00.945Z,96.20
2023-01-02T10:42:28.263Z,95.30
2023-01-02T10:44:55.538Z,95.10
2023-01-02T10:47:38.646Z,94.30
2023-01-02T10:50:08.014Z,93.80
2023-01-02T10:52:38.995Z,93.30
2023-01-02T10:55:06.627Z,93.50
2023-01-02T10:57:44.677Z,93.30
2023-01-02T11:00:22.569Z,93.80
2023-01-02T11:03:18.316Z,94.10
2023-01-02T11:05:50.333Z,94.20
2023-01-02T11:08:21.925Z,93.20
2023-01-02T11:10:49.872Z,91.70
2023-01-02T11:13:21.425Z,90.60
2023-01-02T11:15:53.128Z,90.20
2023-01-02T11:18:26.095Z,90.00
2023-01-02T11:20:56.977Z,88.40
2023-01-02T11:23:25.428Z,88.60
2023-01-02T11:25:53.430Z,87.40
2023-01-02T11:28:25.991Z,86.80
2023-01-02T11:31:09.825Z,86.80
2023-01-02T11:33:37.792Z,86.60
2023-01-02T11:36:11.883Z,84.50
2023-01-02T11:38:47.553Z,81.50
2023-01-02T11:41:48.501Z,79.70
2023-01-02T11:44:24.702Z,79.80
2023-01-02T11:46:52.059Z,79.20
2023-01-02T11:49:21.348Z,78.00
2023-01-02T11:52:01.609Z,78.00
2023-01-02T11:54:52.318Z,78.00
2023-01-02T11:57:25.860Z,78.40
2023-01-02T11:59:53.183Z,78.30
2023-01-02T12:02:26.211Z,78.50
2023-01-02T12:04:53.576Z,78.50
2023-01-02T12:07:29.054Z,78.90
2023-01-02T12:09:59.368Z,79.50
2023-01-02T12:12:55.310Z,79.60
2023-01-02T12:15:40.751Z,79.60
2023-01-02T12:18:26.868Z,79.30
2023-01-02T12:21:06.552Z,78.50
2023-01-02T12:24:07.787Z,78.50
2023-01-02T12:26:46.100Z,78.90
2023-01-02T12:29:47.601Z,79.80
2023-01-02T12:32:26.253Z,79.40
2023-01-02T12:35:03.751Z,77.90
2023-01-02T12:37:43.555Z,77.40
2023-01-02T12:40:20.047Z,77.00
2023-01-02T12:43:00.556Z,78.20
2023-01-02T12:45:49.006Z,77.50
2023-01-02T12:48:46.156Z,77.30
2023-01-02T12:51:34.535Z,77.20
2023-01-02T12:54:27.578Z,76.70
2023-01-02T12:56:57.874Z,76.30
2023-01-02T12:59:37.395Z,75.20
2023-01-02T13:02:35.584Z,75.30
2023-01-02T13:05:06.629Z,75.70
2023-01-02T13:07:42.452Z,76.00
2023-01-02T13:10:14.915Z,75.70
2023-01-02T13:12:42.241Z,75.80
2023-01-02T13:15:25.662Z,75.50
2023-01-02T13:17:58.791Z,76.00
2023-01-02T13:20:56.340Z,76.30
2023-01-02T13:23:26.453Z,76.80
2023-01-02T13:26:14.118Z,77.10
2023-01-02T13:29:03.786Z,76.40
2023-01-02T13:31:46.500Z,76.30
2023-01-02T13:34:31.830Z,76.60
2023-01-02T13:37:05.809Z,76.90
2023-01-02T13:39:42.275Z,76.50
2023-01-02T13:42:29.947Z,76.30
2023-01-02T13:44:59.361Z,77.20
2023-01-02T13:47:48.244Z,78.60
2023-01-02T13:50:18.362Z,79.30
2023-01-02T13:53:09.487Z,79.00
2023-01-02T13:55:40.343Z,78.40
2023-01-02T13:58:18.036Z,77.90
2023-01-02T14:00:54.297Z,78.00
2023-01-02T14:03:25.090Z,78.60
2023-01-02T14:05:58.695Z,78.20
2023-01-02T14:08:42.363Z,78.40
2023-01-02T14:11:21.468Z,78.90
2023-01-02T14:13:52.790Z,79.10
2023-01-02T14:16:23.209Z,79.40
2023-01-02T14:19:14.802Z,79.80
2023-01-02T14:21:52.629Z,80.00
2023-01-02T14:24:38.019Z,80.50
2023-01-02T14:27:06.926Z,81.00
2023-01-02T14:29:40.902Z,81.30
2023-01-02T14:32:09.801Z,81.60
2023-01-02T14:34:44.315Z,82.00
2023-01-02T14:37:12.102Z,82.20
2023-01-02T14:39:39.431Z,82.50
2023-01-02T14:42:51.872Z,82.90
2023-01-02T14:45:20.483Z,83.10
2023-01-02T14:48:05.537Z,83.30
2023-01-02T14:50:33.840Z,83.40
2023-01-02T14:53:14.177Z,83.80
2023-01-02T14:55:42.523Z,84.20
2023-01-02T14:58:35.732Z,84.50
2023-01-02T15:01:09.806Z,85.10
2023-01-02T15:04:06.361Z,85.50
2023-01-02T15:06:43.792Z,85.50
2023-01-02T15:09:27.065Z,85.90
2023-01-02T15:12:13.764Z,86.40
2023-01-02T15:14:42.071Z,86.80
2023-01-02T15:17:20.336Z,87.30
2023-01-02T15:19:47.844Z,87.50
2023-01-02T15:22:19.181Z,87.80
2023-01-02T15:24:50.841Z,88.10
2023-01-02T15:27:24.011Z,88.70
2023-01-02T15:29:53.783Z,89.20
2023-01-02T15:32:23.039Z,89.40
2023-01-02T15:34:50.461Z,89.80
2023-01-02T15:37:19.730Z,90.00
2023-01-02T15:39:48.348Z,90.10
2023-01-02T15:42:42.262Z,90.30
2023-01-02T15:45:16.403Z,90.20
2023-01-02T15:47:48.068Z,90.30
2023-01-02T15:50:26.850Z,90.40
2023-01-02T15:53:05.607Z,90.40
2023-01-02T15:55:40.002Z,90.50
2023-01-02T15:58:17.443Z,90.90
2023-01-02T16:00:45.243Z,90.70
2023-01-02T16:04:01.995Z,90.80
2023-01-02T16:06:27.617Z,90.90
2023-01-02T16:08:59.021Z,90.80
2023-01-02T16:11:26.345Z,91.00
2023-01-02T16:14:18.778Z,91.30
2023-01-02T16:16:50.229Z,91.20
2023-01-02T16:19:30.329Z,91.30
2023-01-02T16:22:14.257Z,91.30
2023-01-02T16:24:45.785Z,91.30
2023-01-02T16:27:14.294Z,91.20
2023-01-02T16:29:43.211Z,91.30
2023-01-02T16:32:30.423Z,91.30
2023-01-02T16:35:21.856Z,91.40
2023-01-02T16:37:56.043Z,91.30
2023-01-02T16:40:59.079Z,91.50
2023-01-02T16:43:11.809Z,91.20
2023-01-02T16:45:40.389Z,91.30
2023-01-02T16:48:10.436Z,91.40
2023-01-02T16:50:41.210Z,91.70
2023-01-02T16:53:08.564Z,91.90
2023-01-02T16:55:35.876Z,91.80
2023-01-02T16:58:03.239Z,91.70
2023-01-02T17:00:30.614Z,92.00
2023-01-02T17:02:57.946Z,92.00
2023-01-02T17:05:35.681Z,92.00
2023-01-02T17:08:03.306Z,91.80
2023-01-02T17:10:30.668Z,92.10
2023-01-02T17:12:57.975Z,91.80
2023-01-02T17:15:25.402Z,91.90
2023-01-02T17:17:52.685Z,92.00
2023-01-02T17:20:20.046Z,92.00
2023-01-02T17:22:47.352Z,92.00
2023-01-02T17:25:15.199Z,92.20
2023-01-02T17:27:42.950Z,92.20
2023-01-02T17:30:12.925Z,92.30
2023-01-02T17:32:41.275Z,92.40
2023-01-02T17:35:09.331Z,92.20
2023-01-02T17:37:37.677Z,92.10
2023-01-02T17:40:06.553Z,92.20
2023-01-02T17:42:33.957Z,92.30
2023-01-02T17:45:01.354Z,92.30
2023-01-02T17:47:58.346Z,92.10
2023-01-02T17:50:17.583Z,91.70
2023-01-02T17:52:44.876Z,91.80
2023-01-02T17:55:12.211Z,91.60
2023-01-02T17:57:39.990Z,91.50
2023-01-02T18:00:09.593Z,91.40
2023-01-02T18:02:40.069Z,91.20
2023-01-02T18:05:08.094Z,91.30
2023-01-02T18:07:35.425Z,91.00
2023-01-02T18:10:07.436Z,90.90
2023-01-02T18:12:42.836Z,90.70
2023-01-02T18:15:11.902Z,90.90
2023-01-02T18:17:39.242Z,90.90
2023-01-02T18:20:11.328Z,91.00
2023-01-02T18:22:44.044Z,91.10
2023-01-02T18:25:27.175Z,91.10
2023-01-02T18:28:02.934Z,91.30
2023-01-02T18:30:30.376Z,91.10
2023-01-02T18:33:17.482Z,91.20
2023-01-02T18:36:00.203Z,91.30
2023-01-02T18:38:31.547Z,91.70
2023-01-02T18:40:58.967Z,91.60
2023-01-02T18:43:32.673Z,91.30
2023-01-02T18:46:09.354Z,91.40
2023-01-02T18:48:36.728Z,91.10
2023-01-02T18:51:05.088Z,91.00
2023-01-02T18:53:39.950Z,91.00
2023-01-02T18:56:13.469Z,90.90
2023-01-02T18:58:43.994Z,91.00
2023-01-02T19:01:23.656Z,90.80
2023-01-02T19:03:56.635Z,90.80
2023-01-02T19:06:27.754Z,90.70
2023-01-02T19:09:00.211Z,90.60
2023-01-02T19:11:50.855Z,90.70
2023-01-02T19:14:21.043Z,90.80
2023-01-02T19:17:24.489Z,90.90
2023-01-02T19:19:51.989Z,91.00
2023-01-02T19:22:21.819Z,91.20
2023-01-02T19:24:49.260Z,91.20
2023-01-02T19:27:26.813Z,91.20
2023-01-02T19:29:54.256Z,91.20
2023-01-02T19:32:27.613Z,91.40
2023-01-02T19:35:10.181Z,91.60
2023-01-02T19:37:41.765Z,91.70
2023-01-02T19:40:19.108Z,91.70
2023-01-02T19:42:50.645Z,92.00
2023-01-02T19:45:28.065Z,91.90
2023-01-02T19:47:55.482Z,91.90
2023-01-02T19:50:24.801Z,91.90
2023-01-02T19:52:52.269Z,92.10
2023-01-02T19:55:19.690Z,92.10
2023-01-02T19:57:47.303Z,92.30
2023-01-02T20:00:15.741Z,92.30
2023-01-02T20:02:45.602Z,92.30
2023-01-02T20:05:20.835Z,92.40
2023-01-02T20:07:49.983Z,92.50
2023-01-02T20:10:17.495Z,92.60
2023-01-02T20:12:44.940Z,92.90
2023-01-02T20:15:15.332Z,92.90
2023-01-02T20:17:42.892Z,92.80
2023-01-02T20:20:16.226Z,92.80
2023-01-02T20:22:43.830Z,92.90
2023-01-02T20:25:12.837Z,92.80
2023-01-02T20:27:40.243Z,93.00
2023-01-02T20:30:08.776Z,93.00
2023-01-02T20:32:36.202Z,92.80
2023-01-02T20:35:03.983Z,92.80
2023-01-02T20:37:31.329Z,92.90
2023-01-02T20:39:58.668Z,93.00
2023-01-02T20:42:25.996Z,93.10
2023-01-02T20:44:53.320Z,93.10
2023-01-02T20:47:20.650Z,93.30
2023-01-02T20:49:48.091Z,93.40
2023-01-02T20:52:15.473Z,93.50
2023-01-02T20:54:42.883Z,93.50
2023-01-02T20:57:10.302Z,93.50
2023-01-02T20:59:37.613Z,93.70
2023-01-02T21:02:06.528Z,93.70
2023-01-02T21:04:36.839Z,93.90
2023-01-02T21:07:05.794Z,93.90
2023-01-02T21:09:33.485Z,94.20
2023-01-02T21:12:00.863Z,94.40
2023-01-02T21:14:32.356Z,94.50
2023-01-02T21:17:02.918Z,94.70
2023-01-02T21:19:30.237Z,94.90
2023-01-02T21:21:57.579Z,95.00
2023-01-02T21:24:24.903Z,95.00
2023-01-02T21:26:52.297Z,95.30
2023-01-02T21:29:20.608Z,95.10
2023-01-02T21:31:48.049Z,95.40
2023-01-02T21:34:15.392Z,95.50
2023-01-02T21:36:42.712Z,95.70
2023-01-02T21:39:10.526Z,96.10
2023-01-02T21:42:09.958Z,96.20
2023-01-02T21:44:37.341Z,96.40
2023-01-02T21:47:04.727Z,96.60
2023-01-02T21:49:32.097Z,96.80
2023-01-02T21:52:00.204Z,97.10
2023-01-02T21:54:27.804Z,97.40
2023-01-02T21:56:55.173Z,97.50
2023-01-02T21:59:25.399Z,97.60
2023-01-02T22:01:53.391Z,97.90
2023-01-02T22:04:21.231Z,98.00
2023-01-02T22:09:36.927Z,98.50
2023-01-02T22:12:07.003Z,98.70
2023-01-02T22:14:36.095Z,98.70
2023-01-02T22:17:05.932Z,98.80
2023-01-02T22:19:33.287Z,99.00
2023-01-02T22:22:01.479Z,99.20
2023-01-02T22:24:28.796Z,99.20
2023-01-02T22:26:57.331Z,99.40
2023-01-02T22:29:33.162Z,99.60
2023-01-02T22:32:11.685Z,99.80
2023-01-02T22:34:43.321Z,99.90
2023-01-02T22:37:12.416Z,99.90
2023-01-02T22:39:41.873Z,99.90
2023-01-02T22:42:59.475Z,99.90
2023-01-02T22:45:24.652Z,99.90
2023-01-02T22:47:51.954Z,99.90
2023-01-02T22:50:24.423Z,99.90
2023-01-02T22:52:51.749Z,99.90
2023-01-02T22:55:20.681Z,99.90
2023-01-02T22:57:51.290Z,99.90
2023-01-02T23:00:22.269Z,99.90
2023-01-02T23:02:50.391Z,99.90
2023-01-02T23:05:18.983Z,99.90
2023-01-02T23:07:46.694Z,99.90
2023-01-02T23:10:14.186Z,99.90
2023-01-02T23:12:41.499Z,99.90
2023-01-02T23:15:10.908Z,99.90
2023-01-02T23:17:56.728Z,99.90
2023-01-02T23:20:25.345Z,99.90
2023-01-02T23:22:52.671Z,99.90
2023-01-02T23:25:19.970Z,99.90
2023-01-02T23:27:47.399Z,99.90
2023-01-02T23:30:15.045Z,99.90
2023-01-02T23:32:42.473Z,99.90
2023-01-02T23:35:10.115Z,99.90
2023-01-02T23:37:37.469Z,99.90
2023-01-02T23:40:05.421Z,99.90
2023-01-02T23:42:32.767Z,99.90
2023-01-02T23:45:00.129Z,99.90
2023-01-02T23:47:27.489Z,99.90
2023-01-02T23:49:54.844Z,99.90
2023-01-02T23:52:22.282Z,99.90
2023-01-02T23:54:49.575Z,99.90
2023-01-02T23:57:17.020Z,99.90
2023-01-02T23:59:44.454Z,99.90
